MPDA/DAV METAR and TAF weather

Enter ICAO airport designator
Station Type Date Time Source
MPDA METAR 2022/12/10 02:00 UTC NOAA

MPDA 100200Z 30003KT 9999 FEW020 24/22 Q1010


Station Type Date Time Source
MPDA Decoded METAR 2022/12/10 02:00 UTC NOAA

David, Panama (MPDA) 08-24N 082-25W 26M
Dec 09, 2022 - 09:00 PM EST / 2022.12.10 0200 UTC
Wind: from the WNW (300 degrees) at 3 MPH (3 KT):0
Visibility: greater than 7 mile(s):0
Sky conditions: mostly clear
Temperature: 75 F (24 C)
Dew Point: 71 F (22 C)
Relative Humidity: 88%
Pressure (altimeter): 29.83 in. Hg (1010 hPa)
ob: MPDA 100200Z 30003KT 9999 FEW020 24/22 Q1010
cycle: 2

Station Type Date Time Source
MPDA TAF 2022/12/09 18:18 UTC NOAA

TAF TAF MPDA 091715Z 0918/1006 22007KT 9999 SCT018
TEMPO 0918/0922 22016KT
TEMPO 1003/1006 03005KT CAVOK

Example: see airport list